Time;durP1;ratioP1;P1;durP2;ratioP2;P2;SDS_P1;SDS_P2;PMS_P1;PMS_P2;Temp;Humidity;BMP_temperature;BMP_pressure;BME280_temperature;BME280_humidity;BME280_pressure;Samples;Min_cycle;Max_cycle;Signal;HPM_P1;HPM_P2
2022/04/29 00:07:12;;;;;;;2.75;2.45;;;;;;;22.96;44.16;101238.91;20440647;28;97879;-79
2022/04/29 00:17:13;;;;;;;3.58;2.45;;;;;;;22.95;44.57;101234.56;20454137;28;100929;-77
2022/04/29 00:27:14;;;;;;;2.83;2.22;;;;;;;22.94;44.51;101230.25;20440060;28;97333;-78
2022/04/29 00:37:15;;;;;;;3.05;2.40;;;;;;;22.97;44.65;101230.03;20443914;28;98255;-79
2022/04/29 00:47:19;;;;;;;4.43;2.73;;;;;;;22.95;44.39;101232.78;20453115;28;97078;-79
2022/04/29 00:57:26;;;;;;;4.82;2.40;;;;;;;22.91;44.56;101228.69;20442797;28;100160;-79
2022/04/29 01:07:31;;;;;;;3.83;2.20;;;;;;;22.93;44.57;101231.22;20441625;28;97471;-79
2022/04/29 01:17:36;;;;;;;3.22;2.42;;;;;;;22.93;44.57;101225.94;20442038;28;98809;-79
2022/04/29 01:27:37;;;;;;;3.28;2.20;;;;;;;22.91;44.63;101219.91;20446977;28;99141;-79
2022/04/29 01:37:39;;;;;;;3.63;2.40;;;;;;;22.91;44.75;101215.47;20420486;28;98682;-81
2022/04/29 01:47:39;;;;;;;3.90;2.63;;;;;;;22.90;44.62;101223.50;20442449;28;97772;-78
2022/04/29 01:57:40;;;;;;;2.20;1.98;;;;;;;22.88;44.81;101214.84;20445720;28;97677;-78
2022/04/29 02:07:43;;;;;;;2.47;2.28;;;;;;;22.85;44.67;101208.81;20437782;28;97084;-79
2022/04/29 02:17:44;;;;;;;3.63;2.20;;;;;;;22.84;44.52;101220.34;20444797;28;100829;-78
2022/04/29 02:27:45;;;;;;;2.22;2.00;;;;;;;22.84;44.64;101212.41;20444000;28;98919;-78
2022/04/29 02:37:45;;;;;;;2.50;2.30;;;;;;;22.85;44.88;101214.09;20443270;28;97629;-79
2022/04/29 02:47:46;;;;;;;3.30;2.30;;;;;;;22.86;44.50;101212.28;20450652;28;98728;-78
2022/04/29 02:57:47;;;;;;;3.35;2.20;;;;;;;22.83;44.72;101204.63;20450237;28;97272;-78
2022/04/29 03:07:47;;;;;;;2.53;2.10;;;;;;;22.80;44.64;101203.03;20421329;28;98977;-78
2022/04/29 03:28:08;;;;;;;2.00;1.80;;;;;;;22.75;44.92;101220.97;20458041;28;97472;-78
2022/04/29 03:38:09;;;;;;;4.63;2.00;;;;;;;22.74;44.72;101218.47;20448016;28;97788;-79
2022/04/29 03:48:10;;;;;;;2.42;2.13;;;;;;;22.73;44.90;101222.03;20437831;28;97180;-78
2022/04/29 03:58:10;;;;;;;2.28;2.08;;;;;;;22.75;44.93;101230.72;20442024;28;98039;-78
2022/04/29 04:08:11;;;;;;;3.00;2.10;;;;;;;22.72;44.88;101239.69;20443988;28;98186;-79
2022/04/29 04:18:11;;;;;;;2.63;2.10;;;;;;;22.74;44.71;101239.59;20424426;28;99963;-79
2022/04/29 04:28:13;;;;;;;3.72;2.00;;;;;;;22.79;45.53;101258.56;20437307;28;97802;-79
2022/04/29 04:38:14;;;;;;;5.23;2.57;;;;;;;22.89;46.31;101259.63;20453117;28;98155;-79
2022/04/29 04:48:14;;;;;;;7.95;2.20;;;;;;;22.93;46.16;101263.72;20446001;28;98332;-76
2022/04/29 04:58:15;;;;;;;11.20;2.55;;;;;;;22.97;46.35;101272.28;20422468;28;99070;-76
2022/04/29 05:08:15;;;;;;;26.15;5.55;;;;;;;23.01;46.47;101274.59;20447461;28;97583;-78
2022/04/29 05:18:16;;;;;;;10.50;4.50;;;;;;;22.24;35.75;101279.91;20424121;28;97804;-79
2022/04/29 05:28:17;;;;;;;9.45;4.05;;;;;;;22.35;35.42;101287.06;20458707;28;98232;-78
2022/04/29 05:38:18;;;;;;;8.47;3.93;;;;;;;22.32;34.68;101288.13;20446393;28;98139;-76
2022/04/29 05:48:18;;;;;;;7.95;3.35;;;;;;;22.47;35.73;101286.28;20452938;28;100492;-75
2022/04/29 05:58:19;;;;;;;10.45;3.55;;;;;;;22.49;36.06;101292.28;20459394;28;96993;-75
2022/04/29 06:08:19;;;;;;;4.47;3.17;;;;;;;22.46;35.80;101299.56;20452408;28;97427;-76
2022/04/29 06:18:20;;;;;;;8.73;3.25;;;;;;;22.46;34.98;101295.16;20449252;28;100717;-76
2022/04/29 06:28:21;;;;;;;6.32;2.70;;;;;;;22.36;34.27;101296.69;20453126;28;98055;-76
2022/04/29 06:38:21;;;;;;;5.18;3.08;;;;;;;22.46;34.55;101311.00;20453374;27;100488;-77
2022/04/29 06:48:22;;;;;;;5.87;3.10;;;;;;;22.47;34.48;101311.81;20464159;28;97161;-76
2022/04/29 06:58:22;;;;;;;4.70;2.92;;;;;;;22.47;34.52;101306.53;20456269;28;97542;-76
2022/04/29 07:08:23;;;;;;;3.28;2.60;;;;;;;22.49;34.47;101300.19;20452448;28;97551;-77
2022/04/29 07:18:24;;;;;;;4.47;2.70;;;;;;;22.52;34.29;101293.88;20445521;28;98565;-76
2022/04/29 07:28:24;;;;;;;5.32;2.50;;;;;;;22.50;34.25;101291.34;20451446;28;97670;-75
2022/04/29 07:48:44;;;;;;;5.43;2.40;;;;;;;22.61;35.47;101292.41;20434537;28;97278;-77
2022/04/29 07:58:45;;;;;;;4.30;2.10;;;;;;;22.65;34.73;101283.31;20459886;28;100410;-80
2022/04/29 08:08:45;;;;;;;4.07;2.13;;;;;;;22.71;33.65;101288.16;20473365;28;97072;-79
2022/04/29 08:18:46;;;;;;;3.40;2.70;;;;;;;22.76;34.83;101275.47;20463481;28;98627;-78
2022/04/29 08:28:47;;;;;;;3.83;2.40;;;;;;;22.81;34.91;101277.81;20447408;28;97178;-78
2022/04/29 08:38:47;;;;;;;2.92;2.20;;;;;;;22.89;35.72;101264.03;20456975;28;98465;-78
2022/04/29 08:48:50;;;;;;;3.08;2.28;;;;;;;22.90;34.84;101261.31;20439501;28;98136;-79
2022/04/29 08:58:53;;;;;;;3.67;2.30;;;;;;;22.95;34.88;101256.53;20436070;28;97636;-77
2022/04/29 09:09:08;;;;;;;5.32;2.20;;;;;;;22.99;34.86;101249.25;20474222;28;97535;-78
2022/04/29 09:19:09;;;;;;;3.28;2.45;;;;;;;23.01;34.25;101227.06;20465713;28;100043;-79
2022/04/29 09:29:14;;;;;;;3.00;2.30;;;;;;;23.07;34.03;101223.13;20481668;28;98043;-79
2022/04/29 09:39:27;;;;;;;2.42;1.98;;;;;;;23.13;33.38;101209.47;20455010;28;98393;-80
2022/04/29 09:49:28;;;;;;;;;;;;;;;23.16;32.22;101225.13;20459817;28;96955;-80
2022/04/29 09:59:31;;;;;;;4.88;2.10;;;;;;;23.21;32.47;101213.41;20445328;28;97008;-78
2022/04/29 10:09:39;;;;;;;2.53;2.00;;;;;;;23.27;32.76;101199.72;20443092;28;98072;-80
2022/04/29 10:30:04;;;;;;;4.28;2.30;;;;;;;23.44;31.29;101180.81;20440676;28;98219;-78
2022/04/29 10:40:11;;;;;;;8.10;2.13;;;;;;;23.40;27.10;101178.50;20446167;28;99208;-78
2022/04/29 10:50:31;;;;;;;3.85;2.30;;;;;;;23.47;26.83;101177.97;20450807;28;97593;-80
2022/04/29 11:00:33;;;;;;;4.07;2.35;;;;;;;23.37;24.91;101163.72;20417679;28;97178;-79
2022/04/29 11:10:59;;;;;;;2.03;1.83;;;;;;;23.46;25.52;101148.97;20424288;28;101501;-77
2022/04/29 11:24:40;;;;;;;3.92;2.00;;;;;;;23.26;25.19;101146.03;20431846;28;99397;-78
2022/04/29 11:31:20;;;;;;;7.40;2.35;;;;;;;23.56;30.13;101142.06;20451532;28;97527;-77
2022/04/29 11:41:24;;;;;;;11.33;2.57;;;;;;;23.85;34.77;101119.63;20447208;28;98727;-77
2022/04/29 11:51:26;;;;;;;6.10;2.20;;;;;;;23.81;26.49;101114.59;20454462;28;97835;-76
2022/04/29 12:01:28;;;;;;;5.55;2.10;;;;;;;23.76;25.11;101097.38;20403392;28;98270;-77
2022/04/29 12:11:30;;;;;;;2.50;2.05;;;;;;;23.81;23.98;101082.84;20328197;28;101722;-76
2022/04/29 12:21:31;;;;;;;2.95;2.28;;;;;;;23.64;25.30;101084.16;20390432;28;101144;-75
2022/04/29 12:42:05;;;;;;;2.38;2.08;;;;;;;23.78;25.01;101055.81;20418734;28;98001;-75
2022/04/29 12:52:06;;;;;;;3.92;2.15;;;;;;;23.77;25.08;101054.94;20451521;28;97753;-75
2022/04/29 13:02:07;;;;;;;3.33;1.92;;;;;;;23.64;24.33;101041.84;20411572;28;99669;-76
2022/04/29 13:12:09;;;;;;;3.13;2.33;;;;;;;23.64;24.42;101035.72;20421218;28;98660;-78
2022/04/29 13:22:11;;;;;;;3.57;2.17;;;;;;;23.82;25.27;101014.91;20413103;28;100212;-73
2022/04/29 13:32:11;;;;;;;3.83;2.00;;;;;;;24.04;25.20;101002.66;20440860;28;97284;-73
2022/04/29 13:42:13;;;;;;;3.30;1.95;;;;;;;24.06;24.65;100998.94;20417849;28;99067;-73
2022/04/29 14:02:33;;;;;;;2.65;2.20;;;;;;;23.77;23.83;100985.34;20447382;28;98005;-74
2022/04/29 14:12:34;;;;;;;4.40;2.15;;;;;;;23.77;23.97;100980.06;20413584;28;97934;-73
2022/04/29 14:22:39;;;;;;;2.42;2.00;;;;;;;24.01;24.37;100968.50;20427454;28;97938;-75
2022/04/29 14:32:40;;;;;;;4.65;2.30;;;;;;;23.91;24.65;100969.25;20413741;28;97131;-73
2022/04/29 14:42:42;;;;;;;2.92;2.20;;;;;;;23.56;24.65;100956.16;20426578;28;97100;-77
2022/04/29 14:52:42;;;;;;;2.85;2.08;;;;;;;23.76;25.30;100958.06;20441561;28;98087;-76
2022/04/29 15:02:43;;;;;;;3.50;1.90;;;;;;;23.96;24.33;100950.38;20412909;28;97865;-74
2022/04/29 15:23:05;;;;;;;3.53;2.20;;;;;;;23.95;24.91;100940.78;20450986;28;99034;-78
2022/04/29 15:33:09;;;;;;;6.97;2.30;;;;;;;23.78;25.56;100934.16;20459594;28;97145;-79
2022/04/29 15:43:12;;;;;;;2.90;2.17;;;;;;;24.15;23.77;100920.63;20449499;28;97720;-79
2022/04/29 15:53:15;;;;;;;2.40;2.10;;;;;;;24.60;22.79;100909.00;20450527;28;98365;-78
2022/04/29 16:03:15;;;;;;;4.30;1.92;;;;;;;24.82;22.81;100907.22;20454653;28;97134;-76
2022/04/29 16:13:16;;;;;;;2.60;2.40;;;;;;;24.82;21.88;100910.69;20438305;28;97199;-78
2022/04/29 16:33:39;;;;;;;3.00;2.25;;;;;;;24.62;25.22;100899.94;20458218;28;97210;-80
2022/04/29 16:43:42;;;;;;;2.10;1.90;;;;;;;24.51;26.58;100900.03;20451983;28;97316;-79
2022/04/29 16:53:43;;;;;;;2.70;2.20;;;;;;;24.45;28.39;100913.78;20450876;28;99302;-82
2022/04/29 17:03:53;;;;;;;6.37;2.47;;;;;;;24.38;29.35;100909.97;20451756;28;97772;-80
2022/04/29 17:13:54;;;;;;;3.80;3.00;;;;;;;23.85;24.93;100913.34;20413164;28;99143;-78
2022/04/29 17:23:55;;;;;;;6.20;2.75;;;;;;;23.72;24.82;100913.50;20403161;28;97982;-78
2022/04/29 17:33:55;;;;;;;14.13;3.72;;;;;;;23.66;25.94;100925.41;20429754;28;97036;-78
2022/04/29 17:43:56;;;;;;;5.32;3.30;;;;;;;23.66;25.37;100930.69;20429604;28;96998;-79
2022/04/29 17:53:56;;;;;;;3.70;2.72;;;;;;;23.58;25.78;100933.94;20415157;28;97142;-79
2022/04/29 18:03:57;;;;;;;5.68;3.55;;;;;;;23.52;26.13;100952.06;20427264;28;97832;-80
2022/04/29 18:14:00;;;;;;;5.40;3.17;;;;;;;23.44;26.46;100947.41;20444823;28;99054;-81
2022/04/29 18:24:00;;;;;;;;;;;;;;;23.41;26.70;100958.19;20471893;28;97007;-81
2022/04/29 18:34:04;;;;;;;7.10;4.15;;;;;;;23.46;29.09;100972.75;20470575;28;97163;-79
2022/04/29 18:44:05;;;;;;;5.80;3.70;;;;;;;23.54;30.71;100977.41;20470500;28;100831;-78
2022/04/29 18:54:05;;;;;;;9.25;3.55;;;;;;;23.60;31.32;100986.69;20468451;28;99725;-78
2022/04/29 19:04:06;;;;;;;5.03;3.30;;;;;;;23.64;32.07;100988.97;20442979;28;97748;-81
2022/04/29 19:14:07;;;;;;;9.30;4.50;;;;;;;23.05;28.90;101000.50;20416644;28;98562;-81
2022/04/29 19:24:08;;;;;;;5.53;3.40;;;;;;;23.51;31.63;101006.75;20439446;28;97905;-79
2022/04/29 19:34:09;;;;;;;6.90;3.53;;;;;;;23.50;32.28;101013.00;20434455;28;98075;-82
2022/04/29 19:44:10;;;;;;;5.90;3.60;;;;;;;23.50;32.07;101013.00;20460379;28;97216;-82
2022/04/29 19:54:10;;;;;;;6.80;3.78;;;;;;;23.48;32.62;101020.19;20460122;28;98122;-81
2022/04/29 20:04:15;;;;;;;3.97;2.88;;;;;;;23.46;32.91;101022.09;20455568;28;99922;-81
2022/04/29 20:14:19;;;;;;;5.25;3.17;;;;;;;23.41;33.34;101011.91;20364753;28;97522;-81
2022/04/29 20:24:20;;;;;;;4.47;3.38;;;;;;;23.40;33.41;101014.66;20363838;28;97062;-81
2022/04/29 20:34:21;;;;;;;4.47;3.10;;;;;;;23.37;33.44;101026.31;20376467;28;97369;-80
2022/04/29 20:44:22;;;;;;;5.00;2.90;;;;;;;23.37;33.57;101025.47;20375415;28;98482;-82
2022/04/29 20:54:22;;;;;;;6.00;2.77;;;;;;;23.34;34.26;101023.91;20370099;28;98150;-81
2022/04/29 21:04:23;;;;;;;4.15;2.90;;;;;;;23.34;34.23;101024.75;20443640;28;97036;-81
2022/04/29 21:14:23;;;;;;;4.05;3.03;;;;;;;23.29;34.62;101034.84;20367949;28;97194;-81
2022/04/29 21:24:24;;;;;;;2.90;2.63;;;;;;;23.28;34.80;101034.97;20358151;28;97002;-80
2022/04/29 21:34:26;;;;;;;4.45;2.72;;;;;;;23.25;34.74;101032.53;20370177;28;97781;-81
2022/04/29 21:44:27;;;;;;;3.43;3.10;;;;;;;23.22;35.35;101036.25;20371458;28;96921;-81
2022/04/29 21:54:30;;;;;;;3.10;2.80;;;;;;;23.19;35.42;101036.47;20361264;28;100744;-81
2022/04/29 22:04:31;;;;;;;3.60;2.65;;;;;;;23.16;35.42;101044.63;20339703;28;99174;-81
2022/04/29 22:14:31;;;;;;;4.03;2.92;;;;;;;23.16;35.96;101049.91;20359417;28;97981;-82
2022/04/29 22:24:32;;;;;;;4.45;2.70;;;;;;;23.14;35.98;101042.09;20354406;28;97257;-82
2022/04/29 22:34:33;;;;;;;3.70;2.77;;;;;;;23.15;36.15;101048.22;20357646;28;100151;-82
2022/04/29 22:44:33;;;;;;;3.73;2.70;;;;;;;23.12;36.04;101025.50;20351635;28;97757;-81
2022/04/29 22:54:34;;;;;;;3.53;2.75;;;;;;;23.12;36.16;101011.44;20366685;28;97902;-81
2022/04/29 23:04:36;;;;;;;3.97;3.00;;;;;;;23.10;36.45;101013.38;20370070;28;97167;-82
2022/04/29 23:14:36;;;;;;;3.93;2.90;;;;;;;23.09;36.52;101017.81;20381057;28;97424;-82
2022/04/29 23:24:37;;;;;;;3.15;2.58;;;;;;;23.07;36.59;101013.59;20373693;28;97666;-82
2022/04/29 23:34:37;;;;;;;4.97;3.08;;;;;;;23.04;36.71;101012.03;20368649;28;99075;-81
2022/04/29 23:44:42;;;;;;;3.83;2.97;;;;;;;23.07;36.70;100995.09;20367567;28;97823;-81
2022/04/29 23:54:46;;;;;;;3.30;2.72;;;;;;;23.02;36.90;100993.66;20356276;28;101167;-82
